createdAt,value
2022-09-24T11:01:55.893Z,27.40
2022-09-24T11:03:49.530Z,21.60
2022-09-24T11:05:24.876Z,22.60
2022-09-24T11:07:22.690Z,21.60
2022-09-24T11:09:01.218Z,22.60
2022-09-24T11:10:51.725Z,21.40
2022-09-24T11:12:28.002Z,25.00
2022-09-24T11:14:14.477Z,22.60
2022-09-24T11:15:56.230Z,20.60
2022-09-24T11:17:33.848Z,24.40
2022-09-24T11:19:16.209Z,17.40
2022-09-24T11:21:18.101Z,22.60
2022-09-24T11:22:56.252Z,21.00
2022-09-24T11:24:34.068Z,24.00
2022-09-24T11:26:21.106Z,17.20
2022-09-24T11:28:23.830Z,18.40
2022-09-24T11:30:13.775Z,18.80
2022-09-24T11:32:09.505Z,22.00
2022-09-24T11:34:29.417Z,19.80
2022-09-24T11:36:18.675Z,21.40
2022-09-24T11:38:09.194Z,17.00
2022-09-24T11:40:05.122Z,24.40
2022-09-24T11:41:48.961Z,20.60
2022-09-24T11:43:48.308Z,15.00
2022-09-24T11:45:59.068Z,21.20
2022-09-24T11:47:49.340Z,17.60
2022-09-24T11:49:47.326Z,18.80
2022-09-24T11:51:30.175Z,21.20
2022-09-24T11:53:14.026Z,19.00
2022-09-24T11:54:59.317Z,17.60
2022-09-24T11:56:36.654Z,18.60
2022-09-24T11:58:26.527Z,19.80
2022-09-24T12:00:07.564Z,21.20
2022-09-24T12:01:40.643Z,15.20
2022-09-24T12:03:20.897Z,12.40
2022-09-24T12:05:08.521Z,17.80
2022-09-24T12:06:43.906Z,16.40
2022-09-24T12:08:49.285Z,16.40
2022-09-24T12:10:42.442Z,15.60
2022-09-24T12:12:22.088Z,14.20
2022-09-24T12:14:13.656Z,15.60
2022-09-24T12:16:00.924Z,18.20
2022-09-24T12:17:58.002Z,15.40
2022-09-24T12:19:33.174Z,10.60
2022-09-24T12:21:07.235Z,18.40
2022-09-24T12:22:39.277Z,16.20
2022-09-24T12:24:16.832Z,14.00
2022-09-24T12:25:49.268Z,12.80
2022-09-24T12:27:23.128Z,13.80
2022-09-24T12:29:19.423Z,13.40
2022-09-24T12:31:12.456Z,12.60
2022-09-24T12:33:03.319Z,12.00
2022-09-24T12:35:09.793Z,12.40
2022-09-24T12:36:57.077Z,16.00
2022-09-24T12:38:30.885Z,14.60
2022-09-24T12:40:08.842Z,11.60
2022-09-24T12:41:44.868Z,15.00
2022-09-24T12:43:42.517Z,10.00
2022-09-24T12:45:17.839Z,14.60
2022-09-24T12:46:54.022Z,12.60
2022-09-24T12:48:25.758Z,13.60
2022-09-24T12:50:01.879Z,12.20
2022-09-24T12:51:37.090Z,14.20
2022-09-24T12:53:24.747Z,5.80
2022-09-24T12:55:01.044Z,10.80
2022-09-24T12:56:32.733Z,12.40
2022-09-24T12:58:06.070Z,12.20
2022-09-24T13:00:27.475Z,9.60
2022-09-24T13:02:18.776Z,12.00
2022-09-24T13:04:14.943Z,11.00
2022-09-24T13:05:47.722Z,13.00
2022-09-24T13:07:32.494Z,14.80
2022-09-24T13:09:04.822Z,12.20
2022-09-24T13:10:36.740Z,16.20
2022-09-24T13:12:17.766Z,8.20
2022-09-24T13:14:02.693Z,18.20
2022-09-24T13:15:40.865Z,13.00
2022-09-24T13:17:13.421Z,13.20
2022-09-24T13:18:58.855Z,11.20
2022-09-24T13:20:30.587Z,18.00
2022-09-24T13:22:02.661Z,12.80
2022-09-24T13:23:37.060Z,15.00
2022-09-24T13:25:08.701Z,12.60
2022-09-24T13:26:40.417Z,13.40
2022-09-24T13:28:37.862Z,2.20
2022-09-24T13:30:21.447Z,13.00
2022-09-24T13:31:57.269Z,11.60
2022-09-24T13:33:31.992Z,12.00
2022-09-24T13:35:07.174Z,13.00
2022-09-24T13:36:50.917Z,14.60
2022-09-24T13:38:25.074Z,15.00
2022-09-24T13:40:07.216Z,13.60
2022-09-24T13:41:51.055Z,10.60
2022-09-24T13:43:35.891Z,11.80
2022-09-24T13:45:12.049Z,12.20
2022-09-24T13:46:45.072Z,10.00
2022-09-24T13:48:31.856Z,11.40
2022-09-24T13:50:08.663Z,12.80
2022-09-24T13:51:41.369Z,10.40
2022-09-24T13:53:12.988Z,11.60
2022-09-24T13:54:53.259Z,11.20
2022-09-24T13:56:25.028Z,10.60
2022-09-24T13:57:56.926Z,11.60
2022-09-24T13:59:28.757Z,7.60
2022-09-24T14:01:08.716Z,11.40
2022-09-24T14:02:45.276Z,10.60
2022-09-24T14:04:19.057Z,11.40
2022-09-24T14:05:51.302Z,9.20
2022-09-24T14:07:23.628Z,11.00
2022-09-24T14:08:55.256Z,9.20
2022-09-24T14:10:26.927Z,9.60
2022-09-24T14:12:03.148Z,10.80
2022-09-24T14:13:38.455Z,9.60
2022-09-24T14:15:14.632Z,12.00
2022-09-24T14:16:46.302Z,9.60
2022-09-24T14:18:18.033Z,8.80
2022-09-24T14:19:54.740Z,9.40
2022-09-24T14:21:28.282Z,8.80
2022-09-24T14:22:59.941Z,9.40
2022-09-24T14:24:36.274Z,8.80
2022-09-24T14:26:08.156Z,11.80
2022-09-24T14:27:44.444Z,16.00
2022-09-24T14:29:27.926Z,21.80
2022-09-24T14:30:59.661Z,23.40
2022-09-24T14:32:33.048Z,24.00
2022-09-24T14:34:04.978Z,30.40
2022-09-24T14:35:37.596Z,48.40
2022-09-24T14:37:17.373Z,43.40
2022-09-24T14:38:57.491Z,42.40
2022-09-24T14:40:29.283Z,41.40
2022-09-24T14:42:00.973Z,46.40
2022-09-24T14:43:42.373Z,48.80
2022-09-24T14:45:21.359Z,49.40
2022-09-24T14:46:59.208Z,53.25
2022-09-24T14:48:32.283Z,49.40
2022-09-24T14:50:05.209Z,49.50
2022-09-24T14:51:36.885Z,68.50
2022-09-24T14:53:27.110Z,68.25
2022-09-24T14:55:18.650Z,76.50
2022-09-24T14:56:50.299Z,74.00
2022-09-24T14:58:34.998Z,101.25
2022-09-24T15:00:26.683Z,80.25
2022-09-24T15:02:37.238Z,80.50
2022-09-24T15:04:18.468Z,86.75
2022-09-24T15:05:50.599Z,85.75
2022-09-24T15:07:26.182Z,93.50
2022-09-24T15:08:58.999Z,85.50
2022-09-24T15:10:30.726Z,90.50
2022-09-24T15:12:10.269Z,97.40
2022-09-24T15:13:41.981Z,101.80
2022-09-24T15:15:24.966Z,107.40
2022-09-24T15:16:58.259Z,135.25
2022-09-24T15:18:29.975Z,114.25
2022-09-24T15:20:02.649Z,149.00
2022-09-24T15:21:34.599Z,137.50
2022-09-24T15:23:06.366Z,109.00
2022-09-24T15:24:38.177Z,96.00
2022-09-24T15:26:09.881Z,98.00
2022-09-24T15:27:44.411Z,91.25
2022-09-24T15:29:19.087Z,128.75
2022-09-24T15:30:50.936Z,124.50
2022-09-24T15:32:22.719Z,87.75
2022-09-24T15:33:56.114Z,84.50
2022-09-24T15:35:27.852Z,88.50
2022-09-24T15:36:59.523Z,96.75
2022-09-24T15:38:31.568Z,85.50
2022-09-24T15:40:08.029Z,91.25
2022-09-24T15:41:39.745Z,94.50
2022-09-24T15:43:24.647Z,88.25
2022-09-24T15:44:56.523Z,78.75
2022-09-24T15:46:28.218Z,135.00
2022-09-24T15:47:59.938Z,162.00
2022-09-24T15:49:31.963Z,157.00
2022-09-24T15:51:09.643Z,146.25
2022-09-24T15:52:52.843Z,142.00
2022-09-24T15:54:24.974Z,134.00
2022-09-24T15:55:59.173Z,113.40
2022-09-24T15:57:30.814Z,114.60
2022-09-24T15:59:02.537Z,88.25
2022-09-24T16:00:34.590Z,91.25
2022-09-24T16:02:11.307Z,84.00
2022-09-24T16:03:44.381Z,91.25
2022-09-24T16:05:16.082Z,94.75
2022-09-24T16:06:47.859Z,87.75
2022-09-24T16:08:19.783Z,82.25
2022-09-24T16:09:52.309Z,79.75
2022-09-24T16:11:24.099Z,77.00
2022-09-24T16:12:55.852Z,86.00
2022-09-24T16:14:27.608Z,79.50
2022-09-24T16:16:04.487Z,76.50
2022-09-24T16:17:38.474Z,78.50
2022-09-24T16:19:10.322Z,97.50
2022-09-24T16:20:42.120Z,81.25
2022-09-24T16:22:16.906Z,78.50
2022-09-24T16:23:57.645Z,79.00
2022-09-24T16:25:29.438Z,82.50
2022-09-24T16:27:01.720Z,86.75
2022-09-24T16:28:33.470Z,83.50
2022-09-24T16:30:06.304Z,96.25
2022-09-24T16:31:38.164Z,84.50
2022-09-24T16:33:09.862Z,79.25
2022-09-24T16:34:43.161Z,84.50
2022-09-24T16:36:14.989Z,83.75
2022-09-24T16:37:46.705Z,93.00
2022-09-24T16:39:20.415Z,93.50
2022-09-24T16:40:59.765Z,90.25
2022-09-24T16:42:31.494Z,100.00
2022-09-24T16:44:03.712Z,91.50
2022-09-24T16:45:35.395Z,99.25
2022-09-24T16:47:07.065Z,148.75
2022-09-24T16:48:39.120Z,114.25
2022-09-24T16:50:10.798Z,93.80
2022-09-24T16:51:42.516Z,100.60
2022-09-24T16:53:15.374Z,128.25
2022-09-24T16:54:47.023Z,111.20
2022-09-24T16:56:19.184Z,97.00
2022-09-24T16:57:51.981Z,105.00
2022-09-24T16:59:23.778Z,99.75
2022-09-24T17:00:55.952Z,101.25
2022-09-24T17:02:27.621Z,99.50
2022-09-24T17:03:59.503Z,94.00
2022-09-24T17:05:31.381Z,102.75
2022-09-24T17:07:03.066Z,96.75
2022-09-24T17:08:54.284Z,98.75
2022-09-24T17:10:25.960Z,86.00
2022-09-24T17:11:57.767Z,104.00
2022-09-24T17:13:29.459Z,104.40
2022-09-24T17:15:02.108Z,99.50
2022-09-24T17:16:34.783Z,104.80
2022-09-24T17:18:06.461Z,107.40
2022-09-24T17:19:38.113Z,105.80
2022-09-24T17:21:11.303Z,109.00
2022-09-24T17:22:42.989Z,116.00
2022-09-24T17:24:20.589Z,98.20
2022-09-24T17:26:04.306Z,114.80
2022-09-24T17:27:36.121Z,105.60
2022-09-24T17:29:07.868Z,108.00
2022-09-24T17:30:39.859Z,112.40
2022-09-24T17:32:11.505Z,113.40
2022-09-24T17:33:44.372Z,121.50
2022-09-24T17:35:16.395Z,120.40
2022-09-24T17:36:48.088Z,116.00
2022-09-24T17:38:19.764Z,141.25
2022-09-24T17:39:51.456Z,124.50
2022-09-24T17:41:25.929Z,232.00
2022-09-24T17:42:57.590Z,165.50
2022-09-24T17:44:29.379Z,236.33
2022-09-24T17:46:03.331Z,126.75
2022-09-24T17:47:55.209Z,117.25
2022-09-24T17:49:26.894Z,137.75
2022-09-24T17:51:02.950Z,125.75
2022-09-24T17:52:34.676Z,131.50
2022-09-24T17:54:08.702Z,121.50
2022-09-24T17:55:48.786Z,130.50
2022-09-24T17:57:21.245Z,121.00
2022-09-24T17:58:54.341Z,121.00
2022-09-24T18:00:25.973Z,133.00
2022-09-24T18:01:57.832Z,133.50
2022-09-24T18:03:29.561Z,132.50
2022-09-24T18:05:01.207Z,132.25
2022-09-24T18:06:34.645Z,125.75
2022-09-24T18:08:06.372Z,120.50
2022-09-24T18:09:38.091Z,129.00
2022-09-24T18:11:12.303Z,134.25
2022-09-24T18:12:43.991Z,202.00
2022-09-24T18:14:17.482Z,209.00
2022-09-24T18:15:49.848Z,149.00
2022-09-24T18:17:21.491Z,200.25
2022-09-24T18:18:53.271Z,181.75
2022-09-24T18:20:25.323Z,169.25
2022-09-24T18:21:59.243Z,177.25
2022-09-24T18:23:31.152Z,143.25
2022-09-24T18:25:02.936Z,145.75
2022-09-24T18:26:35.778Z,189.00
2022-09-24T18:28:07.803Z,204.00
2022-09-24T18:29:40.355Z,169.00
2022-09-24T18:31:13.113Z,159.00
2022-09-24T18:32:46.135Z,155.00
2022-09-24T18:34:17.794Z,182.50
2022-09-24T18:35:49.498Z,144.75
2022-09-24T18:37:21.229Z,175.00
2022-09-24T18:38:53.256Z,166.75
2022-09-24T18:40:25.411Z,170.00
2022-09-24T18:41:57.093Z,167.50
2022-09-24T18:43:30.475Z,137.75
2022-09-24T18:45:02.872Z,165.50
2022-09-24T18:46:35.123Z,162.75
2022-09-24T18:48:06.973Z,153.75
2022-09-24T18:49:38.810Z,165.25
2022-09-24T18:51:20.263Z,162.00
2022-09-24T18:52:52.474Z,157.25
2022-09-24T18:54:24.698Z,168.00
2022-09-24T18:55:56.507Z,168.50
2022-09-24T18:57:28.213Z,183.50
2022-09-24T18:59:04.685Z,167.75
2022-09-24T19:00:51.387Z,179.25
2022-09-24T19:02:25.246Z,177.00
2022-09-24T19:04:00.105Z,181.00
2022-09-24T19:05:31.749Z,171.25
2022-09-24T19:07:03.470Z,151.00
2022-09-24T19:08:35.194Z,172.25
2022-09-24T19:10:07.163Z,170.00
2022-09-24T19:11:39.285Z,164.75
2022-09-24T19:13:11.066Z,165.00
2022-09-24T19:14:42.756Z,178.25
2022-09-24T19:16:15.014Z,165.50
2022-09-24T19:17:46.713Z,154.75
2022-09-24T19:19:18.414Z,175.25
2022-09-24T19:20:50.037Z,170.50
2022-09-24T19:22:21.725Z,164.75
2022-09-24T19:23:55.026Z,183.25
2022-09-24T19:25:33.486Z,173.75
2022-09-24T19:27:05.389Z,185.25
2022-09-24T19:28:39.397Z,182.75
2022-09-24T19:30:12.516Z,162.25
2022-09-24T19:31:46.061Z,179.75
2022-09-24T19:33:17.975Z,174.25
2022-09-24T19:34:49.834Z,242.67
2022-09-24T19:36:22.254Z,252.50
2022-09-24T19:37:53.966Z,213.67
2022-09-24T19:39:25.630Z,189.50
2022-09-24T19:41:14.108Z,193.00
2022-09-24T19:42:46.740Z,204.00
2022-09-24T19:44:18.738Z,183.50
2022-09-24T19:45:58.345Z,187.00
2022-09-24T19:47:30.093Z,180.00
2022-09-24T19:49:01.959Z,180.25
2022-09-24T19:50:35.043Z,169.00
2022-09-24T19:52:07.407Z,189.00
2022-09-24T19:53:39.183Z,194.50
2022-09-24T19:55:10.928Z,187.50
2022-09-24T19:56:42.662Z,200.25
2022-09-24T19:58:14.496Z,189.25
2022-09-24T19:59:46.290Z,186.75
2022-09-24T20:01:18.185Z,177.00
2022-09-24T20:02:50.803Z,197.33
2022-09-24T20:04:24.034Z,193.25
2022-09-24T20:05:55.788Z,184.75
2022-09-24T20:07:27.636Z,202.50
2022-09-24T20:08:59.428Z,185.67
2022-09-24T20:10:31.537Z,198.00
2022-09-24T20:12:03.292Z,194.33
2022-09-24T20:13:34.971Z,189.25
2022-09-24T20:15:07.150Z,195.33
2022-09-24T20:16:40.357Z,196.33
2022-09-24T20:18:12.238Z,208.33
2022-09-24T20:19:43.870Z,205.00
2022-09-24T20:21:17.246Z,198.67
2022-09-24T20:22:49.284Z,197.33
2022-09-24T20:24:21.300Z,205.00
2022-09-24T20:26:12.133Z,195.67
2022-09-24T20:27:52.614Z,214.00
2022-09-24T20:29:24.518Z,213.67
2022-09-24T20:30:56.528Z,211.33
2022-09-24T20:32:28.256Z,199.67
2022-09-24T20:34:00.126Z,204.00
2022-09-24T20:35:32.119Z,207.33
2022-09-24T20:37:04.563Z,208.67
2022-09-24T20:38:37.891Z,210.33
2022-09-24T20:40:09.957Z,198.67
2022-09-24T20:41:42.750Z,207.67
2022-09-24T20:43:14.364Z,212.00
2022-09-24T20:44:46.348Z,199.00
2022-09-24T20:46:21.863Z,190.25
2022-09-24T20:47:53.827Z,199.00
2022-09-24T20:49:25.591Z,203.00
2022-09-24T20:50:57.337Z,197.00
2022-09-24T20:52:29.038Z,197.67
2022-09-24T20:54:00.900Z,191.67
2022-09-24T20:55:32.627Z,189.00
2022-09-24T20:57:04.401Z,200.00
2022-09-24T20:58:36.692Z,169.75
2022-09-24T21:00:10.728Z,197.33
2022-09-24T21:01:42.705Z,184.33
2022-09-24T21:03:39.350Z,192.00
2022-09-24T21:05:09.400Z,176.50
2022-09-24T21:06:41.137Z,197.75
2022-09-24T21:08:16.161Z,182.75
2022-09-24T21:09:47.966Z,179.50
2022-09-24T21:11:21.341Z,180.25
2022-09-24T21:12:52.972Z,195.00
2022-09-24T21:14:26.177Z,185.33
2022-09-24T21:16:03.287Z,181.00
2022-09-24T21:17:35.093Z,185.25
2022-09-24T21:19:08.023Z,192.50
2022-09-24T21:20:39.870Z,186.25
2022-09-24T21:22:12.676Z,191.75
2022-09-24T21:23:45.169Z,206.00
2022-09-24T21:25:36.175Z,193.25
2022-09-24T21:27:08.681Z,174.00
2022-09-24T21:28:40.986Z,177.25
2022-09-24T21:30:12.699Z,187.00
2022-09-24T21:31:46.075Z,194.33
2022-09-24T21:33:17.789Z,212.67
2022-09-24T21:34:49.423Z,214.00
2022-09-24T21:36:28.915Z,179.50
2022-09-24T21:38:00.617Z,160.00
2022-09-24T21:39:32.242Z,158.50
2022-09-24T21:41:08.339Z,159.50
2022-09-24T21:42:40.111Z,149.75
2022-09-24T21:44:13.335Z,155.00
2022-09-24T21:45:45.027Z,153.75
2022-09-24T21:47:17.984Z,146.00
2022-09-24T21:48:49.638Z,138.50
2022-09-24T21:50:21.288Z,128.25
2022-09-24T21:51:56.943Z,144.00
2022-09-24T21:53:28.600Z,131.00
2022-09-24T21:55:00.199Z,125.25
2022-09-24T21:56:32.531Z,144.50
2022-09-24T21:58:04.164Z,123.25
2022-09-24T21:59:54.375Z,124.75
2022-09-24T22:01:30.432Z,120.00
2022-09-24T22:03:02.162Z,124.75
2022-09-24T22:04:33.958Z,125.25
2022-09-24T22:06:05.749Z,116.50
2022-09-24T22:07:38.190Z,119.00
2022-09-24T22:09:10.315Z,121.50
2022-09-24T22:10:42.831Z,100.00
2022-09-24T22:12:14.557Z,114.25
2022-09-24T22:13:47.573Z,119.75
2022-09-24T22:15:19.248Z,117.00
2022-09-24T22:16:51.021Z,116.00
2022-09-24T22:18:23.492Z,116.60
2022-09-24T22:19:55.146Z,111.60
2022-09-24T22:21:27.253Z,114.40
2022-09-24T22:22:58.900Z,115.75
2022-09-24T22:24:30.723Z,118.25
2022-09-24T22:26:02.391Z,118.25
2022-09-24T22:27:34.071Z,110.25
2022-09-24T22:29:05.920Z,117.00
2022-09-24T22:30:44.697Z,117.25
2022-09-24T22:32:16.415Z,102.75
2022-09-24T22:34:07.017Z,118.50
